createdAt,value
2022-12-14T00:01:40.295Z,100311.31
2022-12-14T00:04:07.750Z,100319.50
2022-12-14T00:06:35.072Z,100331.50
2022-12-14T00:09:02.816Z,100327.19
2022-12-14T00:11:32.241Z,100327.47
2022-12-14T00:14:00.339Z,100325.59
2022-12-14T00:16:28.383Z,100331.44
2022-12-14T00:18:56.151Z,100349.09
2022-12-14T00:21:23.880Z,100350.50
2022-12-14T00:23:51.404Z,100350.78
2022-12-14T00:26:22.664Z,100356.34
2022-12-14T00:28:50.884Z,100359.63
2022-12-14T00:31:18.384Z,100371.91
2022-12-14T00:33:45.985Z,100371.91
2022-12-14T00:36:14.902Z,100380.19
2022-12-14T00:38:42.386Z,100377.69
2022-12-14T00:41:09.856Z,100381.78
2022-12-14T00:43:37.774Z,100389.34
2022-12-14T00:46:05.615Z,100394.50
2022-12-14T00:48:33.649Z,100400.53
2022-12-14T00:51:01.127Z,100401.72
2022-12-14T00:53:28.440Z,100387.72
2022-12-14T00:55:55.863Z,100397.97
2022-12-14T00:58:23.636Z,100395.59
2022-12-14T01:00:58.918Z,100398.63
2022-12-14T01:03:26.896Z,100404.00
2022-12-14T01:05:54.581Z,100404.47
2022-12-14T01:08:22.143Z,100406.06
2022-12-14T01:10:50.626Z,100409.34
2022-12-14T01:13:18.210Z,100418.66
2022-12-14T01:15:47.214Z,100421.94
2022-12-14T01:18:14.968Z,100425.50
2022-12-14T01:20:42.258Z,100431.72
2022-12-14T01:23:09.686Z,100431.16
2022-12-14T01:25:37.118Z,100436.31
2022-12-14T01:28:04.551Z,100445.84
2022-12-14T01:30:32.069Z,100451.84
2022-12-14T01:32:59.374Z,100459.19
2022-12-14T01:35:26.764Z,100464.31
2022-12-14T01:37:54.068Z,100469.09
2022-12-14T01:40:21.436Z,100483.06
2022-12-14T01:42:48.725Z,100482.88
2022-12-14T01:45:20.106Z,100489.69
2022-12-14T01:47:49.444Z,100485.22
2022-12-14T01:50:19.875Z,100496.31
2022-12-14T01:52:47.550Z,100501.56
2022-12-14T01:55:14.847Z,100505.25
2022-12-14T01:57:48.342Z,100515.59
2022-12-14T02:00:16.973Z,100517.81
2022-12-14T02:02:46.131Z,100526.53
2022-12-14T02:05:13.653Z,100524.59
2022-12-14T02:07:41.139Z,100523.94
2022-12-14T02:10:09.315Z,100529.91
2022-12-14T02:12:48.271Z,100536.16
2022-12-14T02:15:15.713Z,100540.50
2022-12-14T02:17:43.267Z,100538.28
2022-12-14T02:20:10.930Z,100548.75
2022-12-14T02:22:56.769Z,100559.06
2022-12-14T02:25:24.338Z,100560.38
2022-12-14T02:27:59.058Z,100563.72
2022-12-14T02:30:26.549Z,100564.06
2022-12-14T02:33:11.239Z,100564.81
2022-12-14T02:35:45.832Z,100579.72
2022-12-14T02:38:36.318Z,100575.28
2022-12-14T02:41:22.548Z,100583.47
2022-12-14T02:43:50.037Z,100583.06
2022-12-14T02:46:23.640Z,100586.81
2022-12-14T02:48:58.939Z,100595.44
2022-12-14T02:51:31.268Z,100592.06
2022-12-14T02:54:02.784Z,100592.56
2022-12-14T02:56:33.329Z,100600.31
2022-12-14T02:59:01.539Z,100603.41
2022-12-14T03:01:29.238Z,100602.75
2022-12-14T03:03:56.767Z,100618.91
2022-12-14T03:06:27.163Z,100620.28
2022-12-14T03:09:05.092Z,100626.84
2022-12-14T03:11:37.964Z,100625.41
2022-12-14T03:14:25.900Z,100625.09
2022-12-14T03:16:53.649Z,100633.81
2022-12-14T03:19:23.135Z,100616.66
2022-12-14T03:21:52.371Z,100622.09
2022-12-14T03:24:21.254Z,100635.91
2022-12-14T03:27:21.040Z,100639.97
2022-12-14T03:29:53.010Z,100641.34
2022-12-14T03:32:20.737Z,100655.41
2022-12-14T03:35:26.787Z,100660.38
2022-12-14T03:38:06.238Z,100663.41
2022-12-14T03:40:43.999Z,100674.44
2022-12-14T03:43:30.536Z,100682.22
2022-12-14T03:46:03.762Z,100680.56
2022-12-14T03:48:31.772Z,100685.22
2022-12-14T03:51:07.937Z,100687.38
2022-12-14T03:53:47.605Z,100691.53
2022-12-14T03:56:15.036Z,100696.56
2022-12-14T03:58:50.009Z,100701.19
2022-12-14T04:01:22.888Z,100704.59
2022-12-14T04:03:53.066Z,100697.41
2022-12-14T04:06:23.551Z,100705.97
2022-12-14T04:08:57.185Z,100710.88
2022-12-14T04:11:43.667Z,100706.13
2022-12-14T04:14:34.349Z,100715.47
2022-12-14T04:17:20.809Z,100713.75
2022-12-14T04:19:49.729Z,100726.50
2022-12-14T04:22:18.590Z,100723.72
2022-12-14T04:25:05.682Z,100732.44
2022-12-14T04:27:34.930Z,100735.81
2022-12-14T04:30:02.290Z,100742.66
2022-12-14T04:32:36.229Z,100741.09
2022-12-14T04:35:22.897Z,100747.84
2022-12-14T04:37:55.541Z,100756.66
2022-12-14T04:40:24.147Z,100757.06
2022-12-14T04:43:12.171Z,100762.53
2022-12-14T04:45:40.399Z,100758.09
2022-12-14T04:48:07.777Z,100764.44
2022-12-14T04:50:36.158Z,100766.94
2022-12-14T04:53:05.456Z,100775.31
2022-12-14T04:55:38.613Z,100777.84
2022-12-14T04:58:06.104Z,100781.75
2022-12-14T05:00:36.736Z,100795.38
2022-12-14T05:03:07.438Z,100792.69
2022-12-14T05:05:35.417Z,100806.63
2022-12-14T05:08:10.962Z,100813.94
2022-12-14T05:10:38.399Z,100812.75
2022-12-14T05:13:12.117Z,100819.91
2022-12-14T05:15:40.763Z,100827.72
2022-12-14T05:18:08.149Z,100825.69
2022-12-14T05:20:37.037Z,100828.91
2022-12-14T05:23:04.701Z,100842.34
2022-12-14T05:25:32.542Z,100853.75
2022-12-14T05:27:59.897Z,100855.13
2022-12-14T05:30:27.370Z,100862.22
2022-12-14T05:32:54.946Z,100864.94
2022-12-14T05:35:22.270Z,100862.41
2022-12-14T05:37:49.732Z,100872.09
2022-12-14T05:40:17.245Z,100865.78
2022-12-14T05:42:47.737Z,100862.25
2022-12-14T05:45:18.616Z,100869.91
2022-12-14T05:47:46.280Z,100880.78
2022-12-14T05:50:14.028Z,100891.94
2022-12-14T05:52:41.525Z,100888.19
2022-12-14T05:55:09.099Z,100895.56
2022-12-14T05:57:36.466Z,100908.78
2022-12-14T06:00:04.532Z,100921.19
2022-12-14T06:02:34.625Z,100929.53
2022-12-14T06:05:02.256Z,100930.38
2022-12-14T06:07:29.770Z,100941.94
2022-12-14T06:09:57.124Z,100943.41
2022-12-14T06:12:24.588Z,100946.97
2022-12-14T06:14:51.976Z,100941.38
2022-12-14T06:17:20.087Z,100952.59
2022-12-14T06:19:50.030Z,100961.44
2022-12-14T06:22:20.305Z,100956.69
2022-12-14T06:24:47.848Z,100968.69
2022-12-14T06:27:15.163Z,100969.06
2022-12-14T06:29:43.859Z,100977.00
2022-12-14T06:32:11.467Z,100975.44
2022-12-14T06:34:42.152Z,100976.31
2022-12-14T06:37:09.896Z,100984.94
2022-12-14T06:39:37.229Z,100987.34
2022-12-14T06:42:04.807Z,100997.22
2022-12-14T06:44:33.015Z,100998.75
2022-12-14T06:47:00.588Z,101003.34
2022-12-14T06:49:27.951Z,101005.84
2022-12-14T06:51:55.830Z,101004.25
2022-12-14T06:54:23.669Z,101008.28
2022-12-14T06:56:51.158Z,101015.75
2022-12-14T06:59:18.533Z,101017.28
2022-12-14T07:01:46.280Z,101010.75
2022-12-14T07:04:21.163Z,101027.56
2022-12-14T07:06:48.933Z,101025.31
2022-12-14T07:09:16.331Z,101025.91
2022-12-14T07:11:43.685Z,101024.91
2022-12-14T07:14:13.580Z,101019.22
2022-12-14T07:16:43.817Z,101016.44
2022-12-14T07:19:14.105Z,101017.47
2022-12-14T07:21:41.667Z,101027.69
2022-12-14T07:24:09.048Z,101025.13
2022-12-14T07:26:37.607Z,101027.78
2022-12-14T07:29:04.979Z,101027.03
2022-12-14T07:31:32.701Z,101043.63
2022-12-14T07:34:00.389Z,101031.06
2022-12-14T07:36:28.482Z,101032.38
2022-12-14T07:38:55.943Z,101034.44
2022-12-14T07:41:24.740Z,101043.44
2022-12-14T07:43:52.352Z,101051.19
2022-12-14T07:46:20.654Z,101045.44
2022-12-14T07:48:49.077Z,101051.38
2022-12-14T07:51:16.922Z,101050.75
2022-12-14T07:53:44.330Z,101053.88
2022-12-14T07:56:12.605Z,101066.34
2022-12-14T07:58:39.981Z,101060.84
2022-12-14T08:01:18.145Z,101061.28
2022-12-14T08:03:46.902Z,101058.00
2022-12-14T08:06:14.607Z,101068.59
2022-12-14T08:08:42.274Z,101060.25
2022-12-14T08:11:09.962Z,101065.25
2022-12-14T08:13:38.996Z,101071.47
2022-12-14T08:16:07.133Z,101078.63
2022-12-14T08:18:35.140Z,101079.91
2022-12-14T08:21:02.790Z,101083.56
2022-12-14T08:23:30.807Z,101073.19
2022-12-14T08:25:58.791Z,101079.66
2022-12-14T08:28:28.812Z,101088.56
2022-12-14T08:30:56.409Z,101082.22
2022-12-14T08:33:24.006Z,101085.25
2022-12-14T08:35:51.789Z,101090.81
2022-12-14T08:38:19.247Z,101091.00
2022-12-14T08:40:46.600Z,101107.22
2022-12-14T08:43:13.990Z,101095.88
2022-12-14T08:45:41.375Z,101106.66
2022-12-14T08:48:08.875Z,101104.16
2022-12-14T08:50:36.204Z,101114.78
2022-12-14T08:53:03.619Z,101113.69
2022-12-14T08:55:35.151Z,101111.78
2022-12-14T08:58:05.870Z,101113.91
2022-12-14T09:00:33.281Z,101115.19
2022-12-14T09:03:00.783Z,101116.44
2022-12-14T09:05:28.129Z,101118.34
2022-12-14T09:07:55.824Z,101136.75
2022-12-14T09:10:23.169Z,101123.94
2022-12-14T09:12:51.379Z,101132.28
2022-12-14T09:15:18.719Z,101131.66
2022-12-14T09:17:46.240Z,101130.75
2022-12-14T09:20:14.341Z,101130.63
2022-12-14T09:22:41.796Z,101131.78
2022-12-14T09:25:09.563Z,101140.41
2022-12-14T09:27:36.909Z,101144.38
2022-12-14T09:30:04.541Z,101141.72
2022-12-14T09:32:33.558Z,101142.06
2022-12-14T09:35:01.024Z,101136.69
2022-12-14T09:37:28.315Z,101142.63
2022-12-14T09:39:55.877Z,101142.84
2022-12-14T09:42:41.743Z,101150.78
2022-12-14T09:45:12.310Z,101148.16
2022-12-14T09:47:41.987Z,101142.09
2022-12-14T09:50:13.291Z,101149.06
2022-12-14T09:52:42.334Z,101148.03
2022-12-14T09:55:39.122Z,101143.84
2022-12-14T09:58:07.607Z,101156.25
2022-12-14T10:00:37.379Z,101150.41
2022-12-14T10:03:11.826Z,101149.03
2022-12-14T10:05:42.915Z,101148.88
2022-12-14T10:08:34.017Z,101155.94
2022-12-14T10:11:05.248Z,101158.03
2022-12-14T10:13:36.426Z,101157.13
2022-12-14T10:16:16.249Z,101166.31
2022-12-14T10:19:03.202Z,101170.44
2022-12-14T10:21:54.646Z,101178.94
2022-12-14T10:24:24.139Z,101180.69
2022-12-14T10:26:52.714Z,101186.16
2022-12-14T10:29:27.012Z,101187.19
2022-12-14T10:32:00.926Z,101186.66
2022-12-14T10:34:29.445Z,101188.72
2022-12-14T10:37:02.744Z,101189.69
2022-12-14T10:39:43.674Z,101197.75
2022-12-14T10:42:39.056Z,101197.25
2022-12-14T10:48:22.045Z,101202.63
2022-12-14T10:50:54.198Z,101198.13
2022-12-14T10:53:22.914Z,101212.28
2022-12-14T10:55:58.536Z,101205.53
2022-12-14T10:58:26.971Z,101216.66
2022-12-14T11:00:54.984Z,101219.00
2022-12-14T11:03:22.810Z,101225.47
2022-12-14T11:06:07.752Z,101226.22
2022-12-14T11:08:40.184Z,101223.94
2022-12-14T11:11:19.437Z,101218.19
2022-12-14T11:13:51.399Z,101224.59
2022-12-14T11:16:33.743Z,101216.56
2022-12-14T11:19:03.783Z,101215.81
2022-12-14T11:21:32.220Z,101227.56
2022-12-14T11:23:59.976Z,101217.72
2022-12-14T11:26:32.728Z,101220.91
2022-12-14T11:29:00.729Z,101217.97
2022-12-14T11:31:43.417Z,101214.94
2022-12-14T11:34:30.143Z,101214.19
2022-12-14T11:37:10.834Z,101225.00
2022-12-14T11:39:39.618Z,101226.28
2022-12-14T11:42:07.111Z,101229.78
2022-12-14T11:44:36.234Z,101229.50
2022-12-14T11:47:09.852Z,101219.75
2022-12-14T11:49:39.035Z,101229.03
2022-12-14T11:52:06.376Z,101224.56
2022-12-14T11:54:34.772Z,101240.66
2022-12-14T11:57:08.637Z,101235.41
2022-12-14T11:59:56.268Z,101248.34
2022-12-14T12:02:30.977Z,101250.69
2022-12-14T12:05:00.466Z,101243.09
2022-12-14T12:07:29.823Z,101251.38
2022-12-14T12:10:01.354Z,101251.09
2022-12-14T12:12:28.991Z,101256.25
2022-12-14T12:14:56.684Z,101255.34
2022-12-14T12:17:40.413Z,101263.00
2022-12-14T12:20:28.184Z,101264.78
2022-12-14T12:22:57.515Z,101277.03
2022-12-14T12:25:32.306Z,101284.06
2022-12-14T12:28:04.645Z,101273.50
2022-12-14T12:30:33.649Z,101279.13
2022-12-14T12:33:06.541Z,101276.25
2022-12-14T12:35:36.957Z,101270.06
2022-12-14T12:38:24.575Z,101273.47
2022-12-14T12:41:01.271Z,101280.84
2022-12-14T12:43:30.352Z,101279.34
2022-12-14T12:46:12.173Z,101277.09
2022-12-14T12:48:45.907Z,101279.13
2022-12-14T12:51:17.365Z,101286.16
2022-12-14T12:53:45.619Z,101293.34
2022-12-14T12:56:17.437Z,101288.69
2022-12-14T12:58:50.631Z,101296.22
2022-12-14T13:01:36.184Z,101298.78
2022-12-14T13:04:04.463Z,101297.59
2022-12-14T13:06:36.011Z,101297.91
2022-12-14T13:09:09.358Z,101295.22
2022-12-14T13:11:38.283Z,101296.56
2022-12-14T13:14:08.322Z,101302.69
2022-12-14T13:16:37.175Z,101302.19
2022-12-14T13:22:15.058Z,101325.28
2022-12-14T13:24:43.456Z,101326.84
2022-12-14T13:27:23.726Z,101332.84
2022-12-14T13:30:00.228Z,101337.28
2022-12-14T13:32:49.004Z,101339.09
2022-12-14T13:35:16.490Z,101344.81
2022-12-14T13:37:45.425Z,101341.91
2022-12-14T13:40:23.756Z,101341.03
2022-12-14T13:43:09.858Z,101341.66
2022-12-14T13:45:41.265Z,101358.91
2022-12-14T13:48:17.964Z,101370.66
2022-12-14T13:50:52.951Z,101360.59
2022-12-14T13:53:51.686Z,101355.56
2022-12-14T13:56:19.583Z,101369.69
2022-12-14T13:58:47.421Z,101363.03
2022-12-14T14:01:15.779Z,101360.75
2022-12-14T14:03:43.986Z,101358.34
2022-12-14T14:06:12.608Z,101355.47
2022-12-14T14:08:42.251Z,101364.63
2022-12-14T14:11:36.280Z,101372.94
2022-12-14T14:14:12.265Z,101369.00
2022-12-14T14:16:42.775Z,101369.00
2022-12-14T14:19:11.544Z,101357.56
2022-12-14T14:21:58.935Z,101350.72
2022-12-14T14:24:27.882Z,101365.91
2022-12-14T14:26:58.945Z,101369.34
2022-12-14T14:29:26.326Z,101365.50
2022-12-14T14:31:57.699Z,101363.88
2022-12-14T14:34:29.257Z,101381.34
2022-12-14T14:36:56.696Z,101378.03
2022-12-14T14:39:55.404Z,101375.72
2022-12-14T14:42:20.327Z,101374.50
2022-12-14T14:44:50.634Z,101373.81
2022-12-14T14:47:39.137Z,101378.69
2022-12-14T14:50:07.639Z,101374.25
2022-12-14T14:52:41.765Z,101369.97
2022-12-14T14:55:52.027Z,101381.00
2022-12-14T14:58:24.647Z,101394.44
2022-12-14T15:01:07.491Z,101400.28
2022-12-14T15:03:45.212Z,101402.41
2022-12-14T15:06:13.766Z,101394.47
2022-12-14T15:08:43.099Z,101383.84
2022-12-14T15:11:15.086Z,101391.31
2022-12-14T15:13:51.487Z,101391.44
2022-12-14T15:16:40.849Z,101406.56
2022-12-14T15:19:36.530Z,101409.19
2022-12-14T15:22:04.936Z,101412.91
2022-12-14T15:24:34.135Z,101413.13
2022-12-14T15:27:07.628Z,101416.09
2022-12-14T15:29:35.298Z,101420.31
2022-12-14T15:32:04.257Z,101426.84
2022-12-14T15:34:31.694Z,101435.63
2022-12-14T15:36:59.260Z,101433.59
2022-12-14T15:39:27.155Z,101427.00
2022-12-14T15:42:11.541Z,101421.94
2022-12-14T15:44:43.832Z,101429.47
2022-12-14T15:47:25.337Z,101431.13
2022-12-14T15:49:57.685Z,101435.00
2022-12-14T15:52:29.438Z,101436.56
2022-12-14T15:54:57.393Z,101451.19
2022-12-14T15:57:24.838Z,101450.13
2022-12-14T15:59:52.525Z,101455.72
2022-12-14T16:02:32.363Z,101452.75
2022-12-14T16:05:00.599Z,101456.94
2022-12-14T16:07:38.686Z,101473.00
2022-12-14T16:10:27.345Z,101462.47
2022-12-14T16:12:56.647Z,101464.44
2022-12-14T16:15:25.871Z,101456.09
2022-12-14T16:18:01.077Z,101455.25
2022-12-14T16:20:34.350Z,101452.59
2022-12-14T16:23:06.163Z,101446.69
2022-12-14T16:25:34.544Z,101458.91
2022-12-14T16:28:25.902Z,101453.47
2022-12-14T16:31:13.733Z,101464.50
2022-12-14T16:33:41.832Z,101459.28
2022-12-14T16:36:09.226Z,101470.16
2022-12-14T16:38:41.031Z,101457.25
2022-12-14T16:41:08.396Z,101463.88
2022-12-14T16:43:36.676Z,101456.00
2022-12-14T16:46:04.238Z,101447.78
2022-12-14T16:48:32.384Z,101449.56
2022-12-14T16:51:28.608Z,101465.56
2022-12-14T16:54:06.375Z,101466.91
2022-12-14T16:56:34.416Z,101475.22
2022-12-14T16:59:05.960Z,101467.28
2022-12-14T17:01:40.193Z,101475.63
2022-12-14T17:04:07.983Z,101478.56
2022-12-14T17:06:51.289Z,101483.19
2022-12-14T17:09:22.672Z,101477.56
2022-12-14T17:11:51.975Z,101476.00
2022-12-14T17:14:19.868Z,101479.03
2022-12-14T17:16:47.969Z,101485.13
2022-12-14T17:19:35.542Z,101487.91
2022-12-14T17:22:03.418Z,101486.88
2022-12-14T17:24:31.148Z,101491.59
2022-12-14T17:26:58.476Z,101494.38
2022-12-14T17:29:27.107Z,101497.22
2022-12-14T17:31:58.115Z,101501.25
2022-12-14T17:34:25.558Z,101495.22
2022-12-14T17:36:53.696Z,101499.56
2022-12-14T17:39:21.087Z,101501.44
2022-12-14T17:41:48.637Z,101507.03
2022-12-14T17:44:16.823Z,101508.13
2022-12-14T17:46:45.276Z,101509.84
2022-12-14T17:49:14.775Z,101503.03
2022-12-14T17:51:43.718Z,101506.84
2022-12-14T17:54:18.264Z,101516.81
2022-12-14T17:56:45.957Z,101516.09
2022-12-14T17:59:13.809Z,101517.59
2022-12-14T18:01:41.949Z,101517.53
2022-12-14T18:04:09.523Z,101521.88
2022-12-14T18:06:37.318Z,101520.22
2022-12-14T18:09:07.308Z,101528.72
2022-12-14T18:11:34.961Z,101520.41
2022-12-14T18:14:02.690Z,101523.34
2022-12-14T18:16:31.015Z,101527.13
2022-12-14T18:18:58.581Z,101539.69
2022-12-14T18:21:28.939Z,101536.25
2022-12-14T18:23:56.574Z,101533.13
2022-12-14T18:26:24.218Z,101538.47
2022-12-14T18:28:52.233Z,101531.78
2022-12-14T18:31:38.397Z,101540.97
2022-12-14T18:34:05.851Z,101533.34
2022-12-14T18:36:33.575Z,101527.63
2022-12-14T18:39:01.334Z,101530.22
2022-12-14T18:41:30.111Z,101530.84
2022-12-14T18:43:58.094Z,101524.44
2022-12-14T18:46:25.581Z,101518.44
2022-12-14T18:48:52.980Z,101524.88
2022-12-14T18:51:24.008Z,101528.63
2022-12-14T18:53:51.442Z,101536.91
2022-12-14T18:56:19.015Z,101538.41
2022-12-14T18:58:47.605Z,101532.19
2022-12-14T19:01:16.303Z,101541.13
2022-12-14T19:03:44.092Z,101541.50
2022-12-14T19:09:00.015Z,101546.34
2022-12-14T19:11:27.376Z,101545.91
2022-12-14T19:13:58.193Z,101549.59
2022-12-14T19:16:25.992Z,101549.81
2022-12-14T19:18:53.509Z,101550.81
2022-12-14T19:21:26.120Z,101556.38
2022-12-14T19:23:55.822Z,101546.59
2022-12-14T19:26:23.417Z,101546.09
2022-12-14T19:28:50.777Z,101542.88
2022-12-14T19:31:18.265Z,101534.56
2022-12-14T19:33:45.870Z,101546.47
2022-12-14T19:36:13.404Z,101541.34
2022-12-14T19:38:40.827Z,101538.13
2022-12-14T19:41:09.150Z,101524.75
2022-12-14T19:43:36.550Z,101527.97
2022-12-14T19:46:07.942Z,101529.69
2022-12-14T19:48:35.558Z,101534.25
2022-12-14T19:51:03.652Z,101532.22
2022-12-14T19:53:32.603Z,101531.13
2022-12-14T19:56:00.186Z,101529.31
2022-12-14T19:58:27.883Z,101529.28
2022-12-14T20:00:55.283Z,101531.50
2022-12-14T20:03:22.830Z,101529.63
2022-12-14T20:05:59.442Z,101529.44
2022-12-14T20:08:27.916Z,101531.34
2022-12-14T20:10:55.504Z,101531.91
2022-12-14T20:13:23.248Z,101538.16
2022-12-14T20:15:51.150Z,101531.63
2022-12-14T20:18:20.697Z,101528.16
2022-12-14T20:20:49.461Z,101531.50
2022-12-14T20:23:18.191Z,101525.88
2022-12-14T20:25:45.967Z,101542.69
2022-12-14T20:28:13.569Z,101529.06
2022-12-14T20:30:44.433Z,101535.44
2022-12-14T20:33:11.872Z,101538.34
2022-12-14T20:35:39.203Z,101532.56
2022-12-14T20:38:08.310Z,101538.41
2022-12-14T20:40:38.947Z,101537.19
2022-12-14T20:43:07.148Z,101529.06
2022-12-14T20:45:38.231Z,101529.50
2022-12-14T20:48:05.843Z,101532.13
2022-12-14T20:50:33.654Z,101526.22
2022-12-14T20:53:01.195Z,101527.28
2022-12-14T20:55:29.138Z,101525.00
2022-12-14T20:57:56.502Z,101515.78
2022-12-14T21:00:24.389Z,101518.69
2022-12-14T21:02:52.312Z,101513.91
2022-12-14T21:05:19.706Z,101511.41
2022-12-14T21:07:50.779Z,101502.13
2022-12-14T21:10:21.454Z,101502.13
2022-12-14T21:12:49.726Z,101499.22
2022-12-14T21:15:17.433Z,101498.19
2022-12-14T21:17:44.995Z,101501.44
2022-12-14T21:20:12.409Z,101491.19
2022-12-14T21:22:40.245Z,101489.13
2022-12-14T21:25:08.005Z,101491.41
2022-12-14T21:27:38.587Z,101500.41
2022-12-14T21:30:06.891Z,101495.69
2022-12-14T21:32:38.487Z,101495.22
2022-12-14T21:35:06.311Z,101495.56
2022-12-14T21:37:33.670Z,101497.63
2022-12-14T21:40:03.918Z,101485.66
2022-12-14T21:42:31.507Z,101493.66
2022-12-14T21:44:59.126Z,101497.53
2022-12-14T21:47:27.829Z,101494.41
2022-12-14T21:49:55.298Z,101494.28
2022-12-14T21:52:24.202Z,101502.13
2022-12-14T21:54:51.587Z,101505.66
2022-12-14T21:57:38.713Z,101497.72
2022-12-14T22:00:06.931Z,101503.53
2022-12-14T22:02:41.814Z,101511.63
2022-12-14T22:05:10.329Z,101501.84
2022-12-14T22:07:37.675Z,101510.19
2022-12-14T22:10:05.236Z,101495.50
2022-12-14T22:12:32.687Z,101477.53
2022-12-14T22:15:00.308Z,101485.94
2022-12-14T22:17:27.985Z,101493.03
2022-12-14T22:19:55.485Z,101490.28
2022-12-14T22:22:24.195Z,101496.41
2022-12-14T22:24:51.923Z,101490.72
2022-12-14T22:27:19.525Z,101493.44
2022-12-14T22:29:47.135Z,101501.03
2022-12-14T22:32:14.997Z,101495.34
2022-12-14T22:34:42.503Z,101494.13
2022-12-14T22:37:09.822Z,101491.41
2022-12-14T22:39:37.266Z,101495.88
2022-12-14T22:42:04.656Z,101505.34
2022-12-14T22:44:32.563Z,101504.50
2022-12-14T22:46:59.924Z,101503.47
2022-12-14T22:49:27.363Z,101496.44
2022-12-14T22:51:54.737Z,101486.91
2022-12-14T22:54:24.957Z,101480.94
2022-12-14T22:56:55.343Z,101464.81
2022-12-14T22:59:43.265Z,101466.72
2022-12-14T23:02:11.154Z,101472.13
2022-12-14T23:04:39.088Z,101471.78
2022-12-14T23:07:06.534Z,101471.56
2022-12-14T23:09:52.667Z,101466.91
2022-12-14T23:12:38.607Z,101468.09
2022-12-14T23:15:24.726Z,101476.00
2022-12-14T23:18:13.602Z,101466.13
2022-12-14T23:20:59.674Z,101470.25
2022-12-14T23:23:45.880Z,101476.94
2022-12-14T23:26:31.914Z,101475.44
2022-12-14T23:29:18.730Z,101468.06
2022-12-14T23:32:04.941Z,101469.66
2022-12-14T23:34:51.060Z,101469.69
2022-12-14T23:37:37.092Z,101476.31
2022-12-14T23:40:23.352Z,101472.50
2022-12-14T23:43:08.981Z,101481.13
2022-12-14T23:45:54.765Z,101487.19
2022-12-14T23:48:40.883Z,101477.78
2022-12-14T23:51:27.012Z,101479.44
2022-12-14T23:54:12.811Z,101465.94
2022-12-14T23:56:58.759Z,101461.84
2022-12-14T23:59:49.655Z,101462.66
